Terminal Aerodrome Forecast
Issued by NWS

Home | Current Version | Previous Version | Text Only | Print | Product List | Glossary On
Versions: 1 2 3 4 5 6 7 8 9 10 11 12 13 14 15 16 17 18 19 20 21 22 23 24 25 26 27 28 29 30 31 32 33 34 35
000
FTUS45 KSLC 270524
TAFPVU
TAF
KPVU 270524Z 2706/2806 19010KT P6SM VCSH SCT070 BKN120
     FM270700 VRB04KT P6SM FEW120
     FM271800 27011KT P6SM VCSH BKN100 BKN120
     FM280300 VRB05KT P6SM FEW120
      AMD LTD TO CLD VIS AND WIND=

USA.gov is the U.S. government's official web portal to all federal, state and local government web resources and services.